createdAt,value
2023-11-23T00:02:09.221Z,5.50
2023-11-23T00:04:35.659Z,5.98
2023-11-23T00:07:03.609Z,6.01
2023-11-23T00:09:30.072Z,5.83
2023-11-23T00:11:56.529Z,6.01
2023-11-23T00:14:23.040Z,5.95
2023-11-23T00:16:49.495Z,6.15
2023-11-23T00:19:15.921Z,6.16
2023-11-23T00:21:42.456Z,6.30
2023-11-23T00:24:09.100Z,6.23
2023-11-23T00:26:35.607Z,6.21
2023-11-23T00:29:02.215Z,6.42
2023-11-23T00:31:28.579Z,6.53
2023-11-23T00:33:55.167Z,6.52
2023-11-23T00:36:21.654Z,6.47
2023-11-23T00:38:48.367Z,6.48
2023-11-23T00:41:14.783Z,6.67
2023-11-23T00:43:41.172Z,6.79
2023-11-23T00:46:07.725Z,6.57
2023-11-23T00:48:34.174Z,6.78
2023-11-23T00:51:00.697Z,6.71
2023-11-23T00:53:27.071Z,6.68
2023-11-23T00:55:57.995Z,6.83
2023-11-23T00:58:24.853Z,6.81
2023-11-23T01:00:51.293Z,6.77
2023-11-23T01:03:17.906Z,6.77
2023-11-23T01:05:45.093Z,6.76
2023-11-23T01:08:12.000Z,6.77
2023-11-23T01:10:38.456Z,6.91
2023-11-23T01:13:04.808Z,6.90
2023-11-23T01:15:31.278Z,6.80
2023-11-23T01:17:57.749Z,7.08
2023-11-23T01:20:24.184Z,7.10
2023-11-23T01:22:50.595Z,7.05
2023-11-23T01:25:17.098Z,7.15
2023-11-23T01:27:43.568Z,7.10
2023-11-23T01:30:10.656Z,6.95
2023-11-23T01:32:37.370Z,7.23
2023-11-23T01:35:04.329Z,7.28
2023-11-23T01:37:30.881Z,7.21
2023-11-23T01:39:58.539Z,7.30
2023-11-23T01:42:25.005Z,7.25
2023-11-23T01:44:51.448Z,7.40
2023-11-23T01:47:18.149Z,7.19
2023-11-23T01:49:46.462Z,7.42
2023-11-23T01:52:13.123Z,7.32
2023-11-23T01:54:40.235Z,7.57
2023-11-23T01:57:08.448Z,7.55
2023-11-23T01:59:36.842Z,7.60
2023-11-23T02:02:05.938Z,7.49
2023-11-23T02:04:33.076Z,7.56
2023-11-23T02:07:00.582Z,7.75
2023-11-23T02:09:27.644Z,7.71
2023-11-23T02:11:54.065Z,7.66
2023-11-23T02:14:20.468Z,7.69
2023-11-23T02:16:47.477Z,7.55
2023-11-23T02:19:13.813Z,7.76
2023-11-23T02:21:40.222Z,7.73
2023-11-23T02:24:10.950Z,7.90
2023-11-23T02:26:37.364Z,7.90
2023-11-23T02:29:05.713Z,7.98
2023-11-23T02:31:33.986Z,7.97
2023-11-23T02:34:01.485Z,7.89
2023-11-23T02:36:27.904Z,8.02
2023-11-23T02:38:54.271Z,7.88
2023-11-23T02:41:21.250Z,8.02
2023-11-23T02:43:49.802Z,8.09
2023-11-23T02:46:16.295Z,7.99
2023-11-23T02:48:42.740Z,8.05
2023-11-23T02:51:09.274Z,8.05
2023-11-23T02:53:44.284Z,8.11
2023-11-23T02:56:11.959Z,7.93
2023-11-23T02:58:40.248Z,8.03
2023-11-23T03:01:06.829Z,7.98
2023-11-23T03:03:33.330Z,8.02
2023-11-23T03:06:01.047Z,8.12
2023-11-23T03:08:28.811Z,8.04
2023-11-23T03:10:55.438Z,8.15
2023-11-23T03:13:21.956Z,8.12
2023-11-23T03:15:51.048Z,8.28
2023-11-23T03:18:17.618Z,8.09
2023-11-23T03:20:44.158Z,8.27
2023-11-23T03:23:10.687Z,8.42
2023-11-23T03:25:37.317Z,8.12
2023-11-23T03:28:05.422Z,8.34
2023-11-23T03:30:31.837Z,8.22
2023-11-23T03:32:58.231Z,8.45
2023-11-23T03:35:24.716Z,8.51
2023-11-23T03:37:51.093Z,8.36
2023-11-23T03:40:17.445Z,8.57
2023-11-23T03:42:43.823Z,8.47
2023-11-23T03:45:10.514Z,8.49
2023-11-23T03:47:37.021Z,8.63
2023-11-23T03:50:03.618Z,7.82
2023-11-23T03:52:30.011Z,8.68
2023-11-23T03:54:56.396Z,8.56
2023-11-23T03:57:22.937Z,8.76
2023-11-23T03:59:49.495Z,8.80
2023-11-23T04:02:16.062Z,8.46
2023-11-23T04:04:42.499Z,8.74
2023-11-23T04:07:08.932Z,8.92
2023-11-23T04:09:35.550Z,8.69
2023-11-23T04:12:02.654Z,8.79
2023-11-23T04:14:31.887Z,8.88
2023-11-23T04:16:58.348Z,9.08
2023-11-23T04:19:24.744Z,9.06
2023-11-23T04:21:51.174Z,9.05
2023-11-23T04:24:17.759Z,9.06
2023-11-23T04:26:44.394Z,9.10
2023-11-23T04:29:11.619Z,9.17
2023-11-23T04:31:37.973Z,9.08
2023-11-23T04:34:04.438Z,9.19
2023-11-23T04:36:30.866Z,9.15
2023-11-23T04:38:57.570Z,9.12
2023-11-23T04:41:23.996Z,9.16
2023-11-23T04:43:50.336Z,9.29
2023-11-23T04:46:17.420Z,9.23
2023-11-23T04:48:43.842Z,9.18
2023-11-23T04:51:10.342Z,9.41
2023-11-23T04:53:36.718Z,9.39
2023-11-23T04:56:03.190Z,9.42
2023-11-23T04:58:29.544Z,9.31
2023-11-23T05:00:56.365Z,9.52
2023-11-23T05:03:22.817Z,9.59
2023-11-23T05:05:49.207Z,9.54
2023-11-23T05:08:17.017Z,9.53
2023-11-23T05:10:44.362Z,9.45
2023-11-23T05:13:11.890Z,9.43
2023-11-23T05:15:38.231Z,9.47
2023-11-23T05:18:04.754Z,9.68
2023-11-23T05:20:31.311Z,9.66
2023-11-23T05:22:58.029Z,9.28
2023-11-23T05:25:24.508Z,9.69
2023-11-23T05:27:50.888Z,9.60
2023-11-23T05:30:18.493Z,9.63
2023-11-23T05:32:46.436Z,9.72
2023-11-23T05:35:13.928Z,9.70
2023-11-23T05:37:40.767Z,9.58
2023-11-23T05:40:10.540Z,9.78
2023-11-23T05:42:37.080Z,9.81
2023-11-23T05:45:03.696Z,9.67
2023-11-23T05:47:30.113Z,9.69
2023-11-23T05:49:56.717Z,9.59
2023-11-23T05:52:23.139Z,9.82
2023-11-23T05:54:49.645Z,9.73
2023-11-23T05:57:16.053Z,9.69
2023-11-23T05:59:42.503Z,9.86
2023-11-23T06:02:09.036Z,9.80
2023-11-23T06:04:35.587Z,9.72
2023-11-23T06:07:02.496Z,9.77
2023-11-23T06:09:29.777Z,9.83
2023-11-23T06:14:22.625Z,9.89
2023-11-23T06:16:48.979Z,9.82
2023-11-23T06:19:15.442Z,9.76
2023-11-23T06:21:41.781Z,9.90
2023-11-23T06:24:08.572Z,9.90
2023-11-23T06:26:35.056Z,9.98
2023-11-23T06:29:01.478Z,9.74
2023-11-23T06:31:29.021Z,9.99
2023-11-23T06:33:55.578Z,9.94
2023-11-23T06:36:22.008Z,10.14
2023-11-23T06:38:48.490Z,10.09
2023-11-23T06:41:21.831Z,10.21
2023-11-23T06:43:49.464Z,10.26
2023-11-23T06:46:17.075Z,10.21
2023-11-23T06:48:46.950Z,10.07
2023-11-23T06:51:17.099Z,9.96
2023-11-23T06:53:47.629Z,9.99
2023-11-23T06:56:15.156Z,10.15
2023-11-23T06:58:42.496Z,9.92
2023-11-23T07:01:12.456Z,10.09
2023-11-23T07:03:39.765Z,9.82
2023-11-23T07:06:06.913Z,10.08
2023-11-23T07:08:37.679Z,10.20
2023-11-23T07:11:06.016Z,9.95
2023-11-23T07:13:33.608Z,10.22
2023-11-23T07:16:03.932Z,10.31
2023-11-23T07:18:30.908Z,10.28
2023-11-23T07:20:57.775Z,10.18
2023-11-23T07:23:24.490Z,10.31
2023-11-23T07:25:51.413Z,10.30
2023-11-23T07:28:18.008Z,10.28
2023-11-23T07:30:45.208Z,10.33
2023-11-23T07:33:12.146Z,10.22
2023-11-23T07:35:39.258Z,10.30
2023-11-23T07:38:05.964Z,10.11
2023-11-23T07:40:32.824Z,10.26
2023-11-23T07:42:59.553Z,10.37
2023-11-23T07:45:26.296Z,10.32
2023-11-23T07:47:53.035Z,10.28
2023-11-23T07:50:19.650Z,10.31
2023-11-23T07:52:47.641Z,10.29
2023-11-23T07:55:16.871Z,10.37
2023-11-23T07:57:44.475Z,10.40
2023-11-23T08:00:14.370Z,10.42
2023-11-23T08:02:41.839Z,10.36
2023-11-23T08:05:09.965Z,10.35
2023-11-23T08:07:36.417Z,10.40
2023-11-23T08:10:07.174Z,10.59
2023-11-23T08:12:34.319Z,10.55
2023-11-23T08:15:00.845Z,10.55
2023-11-23T08:17:30.617Z,10.56
2023-11-23T08:19:56.998Z,10.52
2023-11-23T08:22:23.418Z,10.69
2023-11-23T08:24:49.886Z,10.59
2023-11-23T08:27:16.463Z,10.66
2023-11-23T08:29:42.976Z,10.60
2023-11-23T08:32:09.623Z,10.30
2023-11-23T08:34:36.982Z,10.44
2023-11-23T08:37:04.223Z,10.53
2023-11-23T08:39:30.693Z,10.22
2023-11-23T08:41:57.081Z,10.44
2023-11-23T08:44:23.705Z,10.67
2023-11-23T08:46:50.114Z,10.60
2023-11-23T08:49:16.841Z,10.39
2023-11-23T08:51:43.413Z,10.60
2023-11-23T08:54:10.701Z,10.65
2023-11-23T08:56:37.251Z,10.55
2023-11-23T08:59:03.807Z,10.37
2023-11-23T09:01:30.402Z,10.51
2023-11-23T09:03:57.049Z,10.55
2023-11-23T09:06:23.921Z,10.51
2023-11-23T09:08:50.669Z,10.46
2023-11-23T09:11:17.117Z,10.46
2023-11-23T09:13:44.613Z,10.42
2023-11-23T09:16:13.248Z,10.55
2023-11-23T09:18:40.712Z,10.32
2023-11-23T09:21:07.554Z,10.74
2023-11-23T09:23:34.003Z,9.93
2023-11-23T09:26:00.406Z,10.73
2023-11-23T09:28:26.899Z,10.66
2023-11-23T09:30:53.392Z,10.72
2023-11-23T09:33:20.884Z,10.72
2023-11-23T09:35:48.000Z,10.51
2023-11-23T09:38:14.607Z,10.82
2023-11-23T09:40:44.381Z,10.80
2023-11-23T09:43:11.742Z,10.93
2023-11-23T09:45:38.465Z,10.76
2023-11-23T09:48:06.723Z,10.90
2023-11-23T09:50:37.135Z,10.86
2023-11-23T09:53:07.327Z,10.71
2023-11-23T09:55:33.728Z,10.69
2023-11-23T09:58:00.156Z,10.73
2023-11-23T10:00:26.703Z,10.98
2023-11-23T10:02:59.757Z,10.93
2023-11-23T10:05:27.396Z,10.79
2023-11-23T10:07:55.316Z,11.04
2023-11-23T10:10:22.307Z,10.88
2023-11-23T10:12:50.230Z,10.98
2023-11-23T10:15:17.013Z,11.01
2023-11-23T10:17:43.588Z,10.98
2023-11-23T10:20:17.463Z,10.91
2023-11-23T10:22:45.668Z,11.03
2023-11-23T10:25:38.617Z,11.13
2023-11-23T10:28:05.522Z,10.88
2023-11-23T10:30:32.884Z,10.95
2023-11-23T10:33:00.778Z,11.20
2023-11-23T10:35:39.852Z,11.25
2023-11-23T10:38:08.111Z,11.15
2023-11-23T10:40:35.681Z,11.26
2023-11-23T10:43:02.914Z,11.30
2023-11-23T10:45:31.339Z,11.30
2023-11-23T10:47:59.830Z,11.41
2023-11-23T10:50:27.170Z,11.28
2023-11-23T10:52:58.175Z,11.29
2023-11-23T10:55:27.474Z,11.18
2023-11-23T10:57:58.579Z,11.32
2023-11-23T11:00:27.230Z,11.45
2023-11-23T11:02:58.225Z,11.23
2023-11-23T11:05:29.492Z,11.37
2023-11-23T11:08:06.918Z,11.51
2023-11-23T11:10:41.415Z,11.53
2023-11-23T11:13:11.319Z,11.51
2023-11-23T11:15:39.420Z,11.41
2023-11-23T11:18:08.695Z,11.48
2023-11-23T11:20:35.599Z,11.44
2023-11-23T11:23:02.403Z,11.52
2023-11-23T11:25:41.765Z,11.54
2023-11-23T11:28:15.113Z,11.42
2023-11-23T11:30:43.609Z,11.54
2023-11-23T11:33:15.380Z,11.48
2023-11-23T11:35:48.375Z,10.41
2023-11-23T11:38:18.697Z,11.44
2023-11-23T11:40:49.460Z,11.54
2023-11-23T11:43:16.321Z,11.49
2023-11-23T11:45:43.459Z,11.60
2023-11-23T11:48:10.514Z,11.30
2023-11-23T11:50:37.567Z,11.59
2023-11-23T11:53:06.749Z,11.65
2023-11-23T11:55:33.166Z,11.63
2023-11-23T11:57:59.781Z,11.45
2023-11-23T12:00:26.573Z,11.65
2023-11-23T12:02:53.501Z,11.48
2023-11-23T12:05:23.754Z,11.70
2023-11-23T12:07:54.345Z,11.66
2023-11-23T12:10:21.125Z,11.38
2023-11-23T12:12:48.772Z,11.38
2023-11-23T12:15:16.805Z,11.35
2023-11-23T12:17:51.218Z,11.51
2023-11-23T12:20:18.572Z,11.63
2023-11-23T12:22:47.697Z,11.46
2023-11-23T12:25:14.117Z,11.49
2023-11-23T12:27:43.698Z,11.12
2023-11-23T12:30:11.817Z,11.48
2023-11-23T12:32:38.678Z,11.55
2023-11-23T12:35:05.679Z,11.47
2023-11-23T12:37:32.234Z,11.05
2023-11-23T12:39:58.731Z,11.37
2023-11-23T12:42:25.321Z,11.41
2023-11-23T12:44:52.006Z,11.22
2023-11-23T12:47:21.471Z,11.35
2023-11-23T12:49:48.104Z,11.17
2023-11-23T12:52:15.638Z,11.34
2023-11-23T12:54:43.571Z,11.23
2023-11-23T12:57:10.491Z,11.43
2023-11-23T12:59:37.556Z,11.13
2023-11-23T13:02:04.538Z,10.94
2023-11-23T13:04:35.178Z,11.04
2023-11-23T13:07:01.954Z,10.90
2023-11-23T13:09:29.491Z,10.75
2023-11-23T13:11:57.998Z,10.99
2023-11-23T13:14:24.557Z,10.89
2023-11-23T13:16:50.975Z,11.04
2023-11-23T13:19:26.816Z,11.21
2023-11-23T13:22:02.035Z,11.06
2023-11-23T13:24:28.902Z,10.90
2023-11-23T13:26:55.422Z,11.15
2023-11-23T13:29:21.809Z,11.26
2023-11-23T13:31:50.568Z,11.16
2023-11-23T13:34:16.971Z,11.11
2023-11-23T13:36:43.869Z,10.95
2023-11-23T13:39:14.922Z,11.21
2023-11-23T13:41:41.456Z,11.14
2023-11-23T13:44:07.900Z,11.14
2023-11-23T13:46:34.686Z,11.11
2023-11-23T13:49:01.360Z,11.16
2023-11-23T13:51:31.077Z,11.08
2023-11-23T13:53:58.593Z,11.10
2023-11-23T13:56:26.317Z,11.29
2023-11-23T13:58:53.403Z,11.15
2023-11-23T14:01:20.099Z,10.44
2023-11-23T14:03:46.649Z,11.02
2023-11-23T14:06:14.692Z,11.25
2023-11-23T14:08:41.100Z,11.05
2023-11-23T14:11:07.623Z,10.95
2023-11-23T14:13:34.286Z,11.11
2023-11-23T14:16:00.849Z,10.99
2023-11-23T14:18:29.442Z,11.13
2023-11-23T14:20:56.133Z,11.10
2023-11-23T14:23:23.097Z,11.02
2023-11-23T14:25:49.582Z,10.95
2023-11-23T14:28:16.368Z,10.93
2023-11-23T14:30:46.732Z,10.76
2023-11-23T14:33:17.056Z,10.80
2023-11-23T14:35:53.172Z,11.07
2023-11-23T14:38:20.069Z,11.09
2023-11-23T14:40:47.844Z,11.17
2023-11-23T14:43:19.235Z,11.00
2023-11-23T14:45:46.470Z,10.99
2023-11-23T14:48:13.151Z,10.77
2023-11-23T14:50:40.425Z,11.07
2023-11-23T14:53:07.355Z,10.50
2023-11-23T14:55:33.944Z,10.93
2023-11-23T14:58:00.506Z,10.98
2023-11-23T15:00:27.128Z,10.92
2023-11-23T15:02:53.988Z,11.03
2023-11-23T15:05:20.673Z,11.04
2023-11-23T15:07:47.582Z,11.00
2023-11-23T15:10:19.902Z,11.04
2023-11-23T15:12:54.332Z,10.92
2023-11-23T15:15:22.107Z,11.02
2023-11-23T15:17:50.048Z,10.97
2023-11-23T15:20:17.017Z,10.89
2023-11-23T15:22:43.708Z,10.85
2023-11-23T15:25:11.631Z,10.75
2023-11-23T15:27:38.808Z,10.88
2023-11-23T15:30:06.147Z,10.96
2023-11-23T15:32:38.421Z,10.98
2023-11-23T15:35:08.515Z,10.79
2023-11-23T15:37:35.149Z,10.91
2023-11-23T15:40:01.558Z,10.88
2023-11-23T15:42:27.989Z,10.93
2023-11-23T15:44:54.361Z,11.00
2023-11-23T15:47:21.127Z,11.03
2023-11-23T15:49:48.224Z,10.66
2023-11-23T15:52:14.853Z,10.85
2023-11-23T15:54:41.598Z,10.80
2023-11-23T15:57:08.184Z,10.88
2023-11-23T15:59:34.705Z,10.87
2023-11-23T16:02:02.032Z,10.90
2023-11-23T16:04:28.686Z,10.96
2023-11-23T16:06:55.372Z,10.93
2023-11-23T16:09:24.154Z,10.97
2023-11-23T16:11:50.987Z,10.94
2023-11-23T16:14:17.449Z,10.93
2023-11-23T16:16:43.931Z,10.97
2023-11-23T16:19:11.788Z,10.99
2023-11-23T16:21:38.739Z,10.70
2023-11-23T16:24:05.981Z,10.79
2023-11-23T16:26:33.264Z,10.54
2023-11-23T16:29:01.946Z,10.12
2023-11-23T16:31:28.430Z,10.19
2023-11-23T16:33:57.276Z,10.00
2023-11-23T16:36:32.930Z,9.96
2023-11-23T16:39:05.576Z,9.68
2023-11-23T16:41:32.349Z,9.75
2023-11-23T16:43:58.758Z,9.78
2023-11-23T16:46:25.257Z,9.54
2023-11-23T16:48:51.791Z,9.68
2023-11-23T16:51:20.006Z,9.75
2023-11-23T16:53:46.625Z,9.54
2023-11-23T16:56:14.185Z,9.56
2023-11-23T16:58:40.589Z,9.21
2023-11-23T17:01:07.005Z,9.35
2023-11-23T17:03:33.637Z,9.40
2023-11-23T17:06:01.611Z,9.48
2023-11-23T17:08:31.381Z,9.37
2023-11-23T17:10:59.218Z,9.31
2023-11-23T17:13:26.276Z,9.30
2023-11-23T17:15:52.904Z,9.02
2023-11-23T17:18:21.011Z,9.33
2023-11-23T17:20:47.610Z,9.29
2023-11-23T17:23:15.829Z,9.12
2023-11-23T17:25:42.365Z,9.08
2023-11-23T17:28:08.783Z,8.92
2023-11-23T17:30:35.614Z,8.94
2023-11-23T17:33:02.165Z,9.06
2023-11-23T17:35:29.136Z,8.98
2023-11-23T17:37:55.810Z,8.91
2023-11-23T17:40:22.823Z,9.01
2023-11-23T17:42:49.312Z,9.02
2023-11-23T17:45:15.806Z,8.72
2023-11-23T17:47:45.109Z,8.95
2023-11-23T17:50:12.919Z,8.74
2023-11-23T17:52:39.833Z,8.93
2023-11-23T17:55:07.184Z,8.88
2023-11-23T17:57:35.569Z,8.61
2023-11-23T18:00:06.957Z,8.96
2023-11-23T18:02:34.514Z,8.97
2023-11-23T18:05:01.260Z,8.91
2023-11-23T18:07:27.664Z,8.55
2023-11-23T18:09:54.228Z,8.86
2023-11-23T18:12:21.327Z,8.95
2023-11-23T18:14:47.954Z,8.94
2023-11-23T18:17:14.376Z,8.90
2023-11-23T18:19:41.473Z,8.81
2023-11-23T18:22:08.985Z,8.81
2023-11-23T18:24:35.708Z,8.62
2023-11-23T18:27:07.200Z,8.80
2023-11-23T18:29:34.203Z,8.95
2023-11-23T18:32:04.477Z,8.90
2023-11-23T18:34:31.032Z,8.97
2023-11-23T18:36:57.516Z,8.80
2023-11-23T18:39:24.409Z,8.92
2023-11-23T18:41:51.031Z,8.85
2023-11-23T18:44:17.374Z,8.93
2023-11-23T18:46:45.293Z,8.94
2023-11-23T18:49:12.125Z,8.91
2023-11-23T18:51:38.929Z,8.84
2023-11-23T18:54:05.545Z,8.80
2023-11-23T18:56:32.742Z,8.72
2023-11-23T18:58:59.664Z,8.72
2023-11-23T19:01:26.150Z,8.63
2023-11-23T19:03:52.758Z,8.85
2023-11-23T19:06:19.419Z,8.77
2023-11-23T19:08:46.513Z,8.57
2023-11-23T19:11:14.934Z,8.77
2023-11-23T19:13:41.738Z,8.60
2023-11-23T19:16:11.383Z,8.73
2023-11-23T19:18:39.094Z,8.63
2023-11-23T19:21:06.788Z,8.66
2023-11-23T19:23:33.987Z,8.44
2023-11-23T19:26:01.372Z,8.52
2023-11-23T19:28:28.115Z,8.71
2023-11-23T19:30:56.332Z,8.57
2023-11-23T19:33:23.199Z,8.58
2023-11-23T19:35:50.462Z,8.59
2023-11-23T19:38:19.490Z,8.65
2023-11-23T19:40:47.208Z,8.34
2023-11-23T19:43:15.966Z,8.58
2023-11-23T19:45:43.278Z,8.58
2023-11-23T19:48:10.709Z,8.62
2023-11-23T19:50:37.629Z,8.61
2023-11-23T19:53:05.495Z,8.55
2023-11-23T19:55:34.601Z,8.43
2023-11-23T19:58:01.407Z,7.94
2023-11-23T20:00:30.008Z,8.23
2023-11-23T20:02:58.305Z,8.09
2023-11-23T20:05:26.394Z,8.08
2023-11-23T20:07:52.801Z,8.05
2023-11-23T20:10:21.852Z,7.96
2023-11-23T20:12:49.184Z,7.89
2023-11-23T20:15:15.652Z,7.93
2023-11-23T20:17:42.146Z,7.84
2023-11-23T20:20:11.078Z,7.79
2023-11-23T20:22:37.753Z,7.84
2023-11-23T20:25:05.008Z,7.82
2023-11-23T20:27:31.528Z,7.50
2023-11-23T20:29:58.926Z,7.61
2023-11-23T20:32:25.336Z,7.91
2023-11-23T20:34:51.713Z,7.73
2023-11-23T20:37:18.084Z,7.60
2023-11-23T20:39:45.138Z,7.73
2023-11-23T20:42:12.485Z,7.79
2023-11-23T20:44:39.599Z,7.75
2023-11-23T20:47:06.168Z,7.78
2023-11-23T20:49:33.231Z,7.85
2023-11-23T20:52:00.123Z,7.91
2023-11-23T20:54:26.771Z,7.88
2023-11-23T20:56:57.414Z,7.72
2023-11-23T20:59:25.304Z,8.03
2023-11-23T21:01:52.970Z,8.01
2023-11-23T21:04:24.962Z,7.90
2023-11-23T21:07:01.434Z,8.14
2023-11-23T21:09:29.371Z,8.04
2023-11-23T21:11:56.176Z,8.09
2023-11-23T21:14:24.240Z,8.10
2023-11-23T21:16:50.652Z,7.96
2023-11-23T21:19:17.164Z,7.96
2023-11-23T21:21:43.930Z,8.08
2023-11-23T21:24:11.478Z,7.97
2023-11-23T21:26:37.896Z,8.11
2023-11-23T21:29:04.446Z,8.09
2023-11-23T21:31:30.904Z,8.04
2023-11-23T21:33:59.010Z,8.18
2023-11-23T21:36:27.314Z,8.02
2023-11-23T21:38:53.755Z,8.03
2023-11-23T21:41:20.260Z,7.94
2023-11-23T21:43:46.745Z,7.87
2023-11-23T21:46:21.503Z,7.87
2023-11-23T21:48:48.967Z,7.75
2023-11-23T21:51:29.195Z,7.90
2023-11-23T21:53:57.702Z,7.87
2023-11-23T21:56:24.460Z,7.74
2023-11-23T21:58:50.896Z,7.65
2023-11-23T22:01:17.387Z,7.68
2023-11-23T22:03:44.049Z,7.56
2023-11-23T22:06:11.002Z,7.61
2023-11-23T22:08:37.494Z,7.66
2023-11-23T22:11:05.110Z,7.55
2023-11-23T22:13:31.505Z,7.59
2023-11-23T22:15:58.620Z,7.45
2023-11-23T22:18:25.203Z,7.31
2023-11-23T22:20:51.699Z,7.48
2023-11-23T22:23:18.417Z,7.43
2023-11-23T22:25:44.999Z,7.36
2023-11-23T22:28:11.659Z,7.29
2023-11-23T22:30:40.963Z,7.49
2023-11-23T22:33:08.222Z,7.43
2023-11-23T22:35:35.089Z,7.28
2023-11-23T22:38:06.665Z,7.31
2023-11-23T22:40:35.070Z,7.18
2023-11-23T22:43:01.758Z,7.37
2023-11-23T22:45:28.529Z,6.97
2023-11-23T22:47:54.944Z,7.53
2023-11-23T22:50:21.472Z,7.53
2023-11-23T22:52:47.850Z,7.27
2023-11-23T22:55:14.252Z,7.46
2023-11-23T22:57:40.951Z,7.36
2023-11-23T23:00:15.525Z,7.45
2023-11-23T23:02:42.010Z,7.42
2023-11-23T23:05:09.981Z,7.37
2023-11-23T23:07:37.272Z,7.46
2023-11-23T23:10:04.006Z,7.31
2023-11-23T23:12:30.470Z,7.04
2023-11-23T23:14:56.867Z,7.44
2023-11-23T23:17:23.326Z,7.38
2023-11-23T23:19:49.728Z,7.26
2023-11-23T23:22:24.355Z,7.38
2023-11-23T23:24:55.240Z,7.42
2023-11-23T23:27:21.767Z,7.20
2023-11-23T23:29:48.138Z,7.25
2023-11-23T23:32:14.571Z,7.27
2023-11-23T23:34:41.235Z,7.14
2023-11-23T23:37:08.298Z,7.18
2023-11-23T23:39:34.757Z,7.15
2023-11-23T23:42:01.146Z,6.93
2023-11-23T23:44:27.745Z,7.24
2023-11-23T23:46:56.736Z,6.74
2023-11-23T23:49:23.733Z,7.30
2023-11-23T23:51:51.587Z,7.26
2023-11-23T23:54:19.342Z,7.33
2023-11-23T23:56:45.867Z,7.28
2023-11-23T23:59:12.338Z,7.36
